Time;durP1;ratioP1;P1;durP2;ratioP2;P2;SDS_P1;SDS_P2;PMS_P1;PMS_P2;Temp;Humidity;BMP_temperature;BMP_pressure;BME280_temperature;BME280_humidity;BME280_pressure;Samples;Min_cycle;Max_cycle;Signal;HPM_P1;HPM_P2
2023/10/13 00:01:04;;;;;;;2.30;0.70;;;;;;;14.58;100.00;100912.34;5094075;28;20947;-71
2023/10/13 00:03:32;;;;;;;3.70;1.20;;;;;;;14.59;100.00;100903.06;5094364;28;20436;-71
2023/10/13 00:06:02;;;;;;;2.50;0.80;;;;;;;14.63;100.00;100901.28;5094294;28;20530;-71
2023/10/13 00:08:30;;;;;;;2.83;0.90;;;;;;;14.65;100.00;100899.03;5094208;28;20460;-71
2023/10/13 00:10:59;;;;;;;3.00;1.10;;;;;;;14.69;100.00;100896.47;5094556;28;20449;-71
2023/10/13 00:13:27;;;;;;;2.40;0.90;;;;;;;14.68;100.00;100901.13;5094361;28;20482;-71
2023/10/13 00:15:58;;;;;;;2.80;0.87;;;;;;;14.71;100.00;100897.75;5093983;28;20575;-71
2023/10/13 00:18:26;;;;;;;3.30;1.13;;;;;;;14.74;100.00;100894.41;5093964;28;20516;-71
2023/10/13 00:20:56;;;;;;;2.27;0.63;;;;;;;14.79;100.00;100899.69;5094007;28;20436;-71
2023/10/13 00:23:26;;;;;;;3.20;0.77;;;;;;;14.80;100.00;100898.56;5093624;28;20449;-70
2023/10/13 00:25:58;;;;;;;2.17;0.70;;;;;;;14.80;100.00;100889.59;5093934;28;20509;-70
2023/10/13 00:28:26;;;;;;;3.30;1.20;;;;;;;14.80;100.00;100890.38;5093647;28;20842;-71
2023/10/13 00:30:59;;;;;;;2.67;1.00;;;;;;;14.79;100.00;100891.50;5093604;28;20436;-71
2023/10/13 00:33:27;;;;;;;3.70;1.07;;;;;;;14.80;100.00;100886.84;5094222;28;20870;-73
2023/10/13 00:35:57;;;;;;;2.60;1.00;;;;;;;14.79;100.00;100886.06;5093568;28;20579;-69
2023/10/13 00:38:24;;;;;;;2.37;0.80;;;;;;;14.76;100.00;100892.16;5094183;28;20425;-70
2023/10/13 00:40:55;;;;;;;3.37;1.10;;;;;;;14.77;100.00;100882.03;5093490;28;20539;-70
2023/10/13 00:43:34;;;;;;;2.30;0.70;;;;;;;14.77;100.00;100882.84;5093940;28;20432;-70
2023/10/13 00:46:08;;;;;;;2.30;0.80;;;;;;;14.80;100.00;100876.75;5093815;28;20482;-70
2023/10/13 00:48:43;;;;;;;4.80;1.00;;;;;;;14.81;100.00;100881.06;5093915;28;20782;-70
2023/10/13 00:51:22;;;;;;;2.83;0.90;;;;;;;14.81;100.00;100880.28;5093301;28;20459;-70
2023/10/13 00:53:49;;;;;;;2.50;1.00;;;;;;;14.72;100.00;100868.56;5093387;28;20512;-70
2023/10/13 00:56:19;;;;;;;2.67;1.03;;;;;;;14.69;100.00;100874.66;5093453;28;20590;-70
2023/10/13 00:58:46;;;;;;;2.63;0.73;;;;;;;14.67;100.00;100866.81;5093599;28;20948;-69
2023/10/13 01:01:18;;;;;;;2.13;0.70;;;;;;;14.67;100.00;100877.72;5093592;28;20798;-69
2023/10/13 01:03:48;;;;;;;2.40;0.80;;;;;;;14.68;100.00;100873.84;5093938;28;20424;-69
2023/10/13 01:06:16;;;;;;;2.50;0.80;;;;;;;14.64;100.00;100876.41;5093411;28;20456;-69
2023/10/13 01:08:44;;;;;;;2.00;0.60;;;;;;;14.65;100.00;100879.94;5092854;28;20464;-69
2023/10/13 01:11:10;;;;;;;2.40;0.80;;;;;;;14.64;100.00;100878.34;5093472;28;20785;-69
2023/10/13 01:13:37;;;;;;;2.30;0.63;;;;;;;14.61;100.00;100876.28;5093493;28;20444;-69
2023/10/13 01:16:07;;;;;;;2.47;0.80;;;;;;;14.52;100.00;100870.00;5093439;28;20858;-69
2023/10/13 01:18:39;;;;;;;3.50;1.10;;;;;;;14.52;100.00;100875.44;5093369;28;20448;-69
2023/10/13 01:21:05;;;;;;;2.77;1.17;;;;;;;14.50;100.00;100866.81;5093501;28;20431;-69
2023/10/13 01:23:38;;;;;;;4.77;1.00;;;;;;;14.50;100.00;100869.53;5093049;28;20501;-69
2023/10/13 01:26:05;;;;;;;2.80;0.87;;;;;;;14.52;100.00;100865.38;5093243;28;20518;-69
2023/10/13 01:28:44;;;;;;;2.93;1.00;;;;;;;14.54;100.00;100875.94;5093335;28;20509;-69
2023/10/13 01:31:11;;;;;;;2.40;0.70;;;;;;;14.57;100.00;100873.38;5093701;28;20420;-69
2023/10/13 01:33:37;;;;;;;2.47;0.77;;;;;;;14.61;100.00;100868.09;5093418;28;20447;-69
2023/10/13 01:36:06;;;;;;;3.27;1.43;;;;;;;14.63;100.00;100869.38;5097389;28;20559;-69
2023/10/13 01:38:36;;;;;;;2.60;0.90;;;;;;;14.60;100.00;100864.56;5097097;28;20444;-69
2023/10/13 01:41:05;;;;;;;5.70;1.07;;;;;;;14.64;100.00;100870.97;5097034;28;20488;-70
2023/10/13 01:43:31;;;;;;;3.00;1.40;;;;;;;14.64;100.00;100862.00;5097032;28;20927;-70
2023/10/13 01:45:57;;;;;;;3.37;1.47;;;;;;;14.62;100.00;100875.94;5097079;28;20524;-70
2023/10/13 01:48:23;;;;;;;4.50;1.33;;;;;;;14.62;100.00;100875.94;5116752;28;20538;-70
2023/10/13 01:50:55;;;;;;;2.87;1.27;;;;;;;14.63;100.00;100865.84;5117377;28;20201;-70
2023/10/13 01:53:22;;;;;;;4.13;1.17;;;;;;;14.68;100.00;100873.84;5117293;28;20435;-70
2023/10/13 01:55:50;;;;;;;4.17;1.70;;;;;;;14.64;100.00;100868.25;5117437;28;20439;-70
2023/10/13 01:58:18;;;;;;;2.90;1.20;;;;;;;14.70;100.00;100859.91;5117229;28;20475;-70
2023/10/13 02:00:45;;;;;;;3.33;1.07;;;;;;;14.70;100.00;100849.81;5117418;28;20467;-70
2023/10/13 02:03:15;;;;;;;4.10;1.07;;;;;;;14.70;100.00;100858.00;5117142;28;20533;-70
2023/10/13 02:05:46;;;;;;;4.57;1.90;;;;;;;14.68;100.00;100845.78;5117328;28;20442;-70
2023/10/13 02:08:17;;;;;;;3.50;1.60;;;;;;;14.67;100.00;100831.38;5116600;28;20985;-70
2023/10/13 02:10:44;;;;;;;4.07;1.40;;;;;;;14.71;100.00;100842.44;5116659;28;20911;-69
2023/10/13 02:13:17;;;;;;;2.80;0.93;;;;;;;14.71;100.00;100845.16;5117290;28;20538;-69
2023/10/13 02:15:44;;;;;;;3.70;1.47;;;;;;;14.69;100.00;100842.75;5116505;28;20933;-69
2023/10/13 02:18:13;;;;;;;2.80;1.00;;;;;;;14.70;100.00;100843.53;5117009;28;20517;-69
2023/10/13 02:20:43;;;;;;;4.07;1.53;;;;;;;14.71;100.00;100840.50;5116746;28;20439;-70
2023/10/13 02:23:10;;;;;;;4.13;1.90;;;;;;;14.73;100.00;100832.78;5116726;28;20838;-70
2023/10/13 02:25:42;;;;;;;5.47;1.87;;;;;;;14.71;100.00;100829.59;5116374;28;20436;-70
2023/10/13 02:28:13;;;;;;;3.70;1.70;;;;;;;14.70;100.00;100836.19;5116383;28;20957;-70
2023/10/13 02:30:44;;;;;;;4.07;1.20;;;;;;;14.69;100.00;100831.84;5116613;28;20512;-70
2023/10/13 02:33:11;;;;;;;4.20;1.70;;;;;;;14.73;100.00;100826.53;5116572;28;20424;-70
2023/10/13 02:35:43;;;;;;;3.60;1.50;;;;;;;14.73;100.00;100819.16;5116461;28;20442;-70
2023/10/13 02:38:11;;;;;;;3.63;1.73;;;;;;;14.75;100.00;100819.66;5116344;28;20464;-70
2023/10/13 02:40:38;;;;;;;6.20;2.67;;;;;;;14.73;100.00;100816.44;5116057;28;20448;-70
2023/10/13 02:43:05;;;;;;;7.10;2.20;;;;;;;14.74;100.00;100815.31;5116334;28;20530;-70
2023/10/13 02:45:32;;;;;;;4.60;2.07;;;;;;;14.72;100.00;100816.75;5115764;28;21069;-70
2023/10/13 02:48:13;;;;;;;5.73;2.57;;;;;;;14.75;100.00;100816.13;5115791;28;20456;-70
2023/10/13 02:50:45;;;;;;;7.53;2.07;;;;;;;14.75;100.00;100814.19;5116557;28;20469;-70
2023/10/13 02:53:12;;;;;;;4.50;2.37;;;;;;;14.76;100.00;100810.34;5116608;28;20707;-70
2023/10/13 02:55:40;;;;;;;3.30;1.60;;;;;;;14.79;100.00;100812.44;5115768;28;20447;-70
2023/10/13 02:58:08;;;;;;;3.67;1.30;;;;;;;14.81;100.00;100806.63;5115586;28;20555;-70
2023/10/13 03:00:35;;;;;;;4.47;2.10;;;;;;;14.83;100.00;100807.94;5116025;28;20479;-70
2023/10/13 03:03:02;;;;;;;4.47;1.97;;;;;;;14.89;100.00;100797.66;5115979;28;20515;-68
2023/10/13 03:05:31;;;;;;;5.03;2.00;;;;;;;14.85;100.00;100797.47;5115908;28;20504;-69
2023/10/13 03:07:58;;;;;;;6.00;2.40;;;;;;;14.83;100.00;100798.91;5115251;28;20475;-70
2023/10/13 03:10:28;;;;;;;4.77;2.20;;;;;;;14.81;100.00;100791.06;5115468;28;20450;-70
2023/10/13 03:12:55;;;;;;;6.07;2.70;;;;;;;14.80;100.00;100789.47;5115683;28;20439;-70
2023/10/13 03:15:28;;;;;;;4.70;2.30;;;;;;;14.80;100.00;100780.50;5115653;28;20518;-70
2023/10/13 03:17:58;;;;;;;5.53;2.50;;;;;;;14.78;100.00;100780.81;5115163;28;20487;-71
2023/10/13 03:20:31;;;;;;;5.60;2.30;;;;;;;14.74;100.00;100773.59;5115857;28;20859;-71
2023/10/13 03:22:58;;;;;;;6.77;2.60;;;;;;;14.79;100.00;100774.25;5115481;28;20438;-71
2023/10/13 03:25:28;;;;;;;5.07;2.33;;;;;;;14.81;100.00;100768.47;5115441;28;20858;-70
2023/10/13 03:28:04;;;;;;;5.00;2.57;;;;;;;14.86;100.00;100763.63;5115832;28;20456;-70
2023/10/13 03:30:35;;;;;;;4.60;2.50;;;;;;;14.90;100.00;100747.41;5115104;28;20829;-70
2023/10/13 03:33:08;;;;;;;7.87;2.30;;;;;;;14.94;100.00;100744.84;5115428;28;20799;-70
2023/10/13 03:35:41;;;;;;;4.50;2.20;;;;;;;14.97;100.00;100733.28;5115386;28;20419;-70
2023/10/13 03:38:18;;;;;;;5.27;2.63;;;;;;;14.96;100.00;100732.47;5115568;28;20972;-70
2023/10/13 03:41:06;;;;;;;4.33;2.00;;;;;;;14.94;100.00;100734.72;5115455;28;20411;-70
2023/10/13 03:43:34;;;;;;;6.20;2.20;;;;;;;14.92;100.00;100725.25;5115512;28;20419;-70
2023/10/13 03:46:07;;;;;;;8.10;2.80;;;;;;;14.92;100.00;100731.53;5115101;28;20436;-70
2023/10/13 03:48:51;;;;;;;5.53;2.47;;;;;;;14.93;100.00;100726.88;5115443;28;20439;-70
2023/10/13 03:51:19;;;;;;;5.63;2.57;;;;;;;14.95;100.00;100719.94;5115181;28;20416;-70
2023/10/13 03:53:52;;;;;;;6.00;2.77;;;;;;;14.97;100.00;100716.91;5114910;28;20435;-70
2023/10/13 03:56:26;;;;;;;3.80;2.07;;;;;;;14.94;100.00;100728.47;5114328;28;20462;-70
2023/10/13 03:58:57;;;;;;;6.00;1.97;;;;;;;14.89;100.00;100726.72;5114773;28;20431;-69
2023/10/13 04:01:31;;;;;;;10.40;2.23;;;;;;;14.90;100.00;100722.88;5114792;28;20428;-70
2023/10/13 04:04:03;;;;;;;5.80;2.63;;;;;;;14.86;100.00;100719.19;5114814;28;20423;-70
2023/10/13 04:15:18;;;;;;;6.50;2.93;;;;;;;14.95;100.00;100719.16;5113174;28;20440;-70
2023/10/13 04:17:45;;;;;;;5.43;2.30;;;;;;;14.96;100.00;100712.56;5114610;28;20479;-69
2023/10/13 04:20:27;;;;;;;7.10;3.47;;;;;;;14.98;100.00;100711.13;5114798;28;20514;-69
2023/10/13 04:25:52;;;;;;;7.13;3.20;;;;;;;14.97;100.00;100700.56;5113629;28;20431;-69
2023/10/13 04:28:34;;;;;;;7.87;3.57;;;;;;;14.93;100.00;100696.88;5114401;28;20448;-69
2023/10/13 04:31:11;;;;;;;6.30;2.70;;;;;;;14.86;100.00;100684.53;5114390;28;20954;-69
2023/10/13 04:33:51;;;;;;;5.43;2.50;;;;;;;14.89;100.00;100691.28;5114109;28;20415;-69
2023/10/13 04:36:36;;;;;;;5.50;2.47;;;;;;;14.94;100.00;100690.28;5114500;28;20492;-69
2023/10/13 04:39:09;;;;;;;7.00;2.47;;;;;;;14.98;100.00;100686.56;5113642;28;20419;-69
2023/10/13 04:41:39;;;;;;;6.60;2.47;;;;;;;15.01;100.00;100677.75;5113846;28;20424;-69
2023/10/13 04:47:07;;;;;;;6.63;2.97;;;;;;;15.07;100.00;100664.72;5113255;28;20452;-69
2023/10/13 04:49:35;;;;;;;3.90;2.10;;;;;;;15.08;100.00;100669.81;5113742;28;20500;-69
2023/10/13 04:52:12;;;;;;;5.90;2.53;;;;;;;15.10;100.00;100662.13;5113708;28;20479;-69
2023/10/13 04:54:45;;;;;;;5.23;2.57;;;;;;;15.11;100.00;100673.84;5113749;28;20428;-69
2023/10/13 04:57:31;;;;;;;5.90;2.47;;;;;;;15.09;100.00;100670.63;5113932;28;20829;-69
2023/10/13 05:03:30;;;;;;;6.60;2.90;;;;;;;15.16;100.00;100664.66;5112725;28;20521;-69
2023/10/13 05:44:48;;;;;;;6.60;3.60;;;;;;;15.31;100.00;100653.97;5117344;28;20948;-70
2023/10/13 05:47:46;;;;;;;7.27;2.60;;;;;;;15.30;100.00;100655.09;5117096;28;20455;-70
2023/10/13 05:50:29;;;;;;;6.37;2.93;;;;;;;15.32;100.00;100657.50;5117392;28;20447;-70
2023/10/13 06:28:45;;;;;;;3.93;2.23;;;;;;;15.55;100.00;100623.28;5096236;28;20446;-70
2023/10/13 06:31:22;;;;;;;5.00;2.40;;;;;;;15.52;100.00;100636.81;5096284;28;20515;-71
2023/10/13 06:33:50;;;;;;;5.43;2.80;;;;;;;15.55;100.00;100634.22;5096506;28;20495;-70
2023/10/13 06:36:17;;;;;;;8.70;2.40;;;;;;;15.59;100.00;100628.88;5096115;28;20461;-73
2023/10/13 06:38:44;;;;;;;6.53;3.70;;;;;;;15.58;100.00;100625.38;5095646;28;20992;-73
2023/10/13 06:41:19;;;;;;;4.90;2.20;;;;;;;15.60;100.00;100620.34;5096032;28;20947;-70
2023/10/13 06:43:58;;;;;;;6.00;3.13;;;;;;;15.62;100.00;100622.75;5096425;28;20420;-72
2023/10/13 06:46:28;;;;;;;5.63;2.80;;;;;;;15.67;100.00;100627.22;5095889;28;20521;-72
2023/10/13 06:48:59;;;;;;;5.10;2.70;;;;;;;15.71;100.00;100622.69;5096425;28;20459;-73
2023/10/13 06:51:30;;;;;;;4.70;2.00;;;;;;;15.75;100.00;100620.91;5096021;28;20432;-73
2023/10/13 06:53:57;;;;;;;4.47;2.50;;;;;;;15.81;100.00;100614.91;5095868;28;20428;-73
2023/10/13 06:56:28;;;;;;;9.10;2.97;;;;;;;15.89;100.00;100611.31;5095883;28;20457;-73
2023/10/13 06:58:59;;;;;;;7.80;3.10;;;;;;;15.96;100.00;100615.41;5095475;28;20460;-74
2023/10/13 07:01:27;;;;;;;4.33;2.60;;;;;;;16.03;100.00;100619.19;5095635;28;20474;-74
2023/10/13 07:03:53;;;;;;;6.33;2.50;;;;;;;16.08;100.00;100618.19;5096484;28;20535;-74
2023/10/13 07:06:22;;;;;;;4.80;2.60;;;;;;;16.13;100.00;100624.22;5095913;28;20465;-74
2023/10/13 07:08:52;;;;;;;5.70;2.90;;;;;;;16.19;100.00;100621.28;5095469;28;20464;-73
2023/10/13 07:11:32;;;;;;;7.70;2.77;;;;;;;16.21;100.00;100617.09;5095903;28;20412;-73
2023/10/13 07:13:59;;;;;;;5.90;3.03;;;;;;;16.24;100.00;100619.13;5095715;28;20432;-73
2023/10/13 07:16:35;;;;;;;4.70;2.30;;;;;;;16.25;100.00;100619.94;5095240;28;20959;-74
2023/10/13 07:19:05;;;;;;;5.53;2.07;;;;;;;16.32;100.00;100611.97;5095971;28;20963;-72
2023/10/13 07:21:34;;;;;;;6.60;2.80;;;;;;;16.38;100.00;100607.91;5095502;28;20512;-73
2023/10/13 07:24:10;;;;;;;6.17;3.17;;;;;;;16.45;100.00;100616.31;5094933;28;21014;-71
2023/10/13 07:26:42;;;;;;;5.20;2.67;;;;;;;16.54;100.00;100616.22;5095427;28;20550;-71
2023/10/13 07:29:09;;;;;;;5.03;2.47;;;;;;;16.60;100.00;100606.63;5094887;28;20428;-74
2023/10/13 07:31:37;;;;;;;4.73;2.23;;;;;;;16.67;100.00;100609.63;5094073;28;20468;-74
2023/10/13 07:34:12;;;;;;;4.87;2.30;;;;;;;16.74;100.00;100609.09;5095051;28;20447;-75
2023/10/13 07:36:43;;;;;;;6.60;2.67;;;;;;;16.81;100.00;100601.91;5094868;28;20455;-73
2023/10/13 07:39:21;;;;;;;5.47;2.70;;;;;;;16.88;100.00;100595.88;5094569;28;20982;-73
2023/10/13 07:41:51;;;;;;;5.00;2.30;;;;;;;16.97;100.00;100598.47;5094630;28;20876;-73
2023/10/13 07:44:24;;;;;;;4.40;2.37;;;;;;;17.04;100.00;100604.16;5095362;28;20437;-73
2023/10/13 07:46:58;;;;;;;6.20;2.27;;;;;;;17.12;100.00;100593.09;5094717;28;20471;-73
2023/10/13 07:49:31;;;;;;;5.10;2.50;;;;;;;17.20;100.00;100604.25;5094710;28;20473;-73
2023/10/13 07:52:14;;;;;;;5.40;2.30;;;;;;;17.25;100.00;100604.81;5094665;28;20511;-73
2023/10/13 07:54:43;;;;;;;3.63;1.80;;;;;;;17.28;100.00;100597.84;5094285;28;20919;-73
2023/10/13 07:57:09;;;;;;;4.20;1.77;;;;;;;17.34;100.00;100591.78;5094739;28;20468;-73
2023/10/13 07:59:47;;;;;;;4.30;1.80;;;;;;;17.40;100.00;100598.63;5094693;28;20440;-73
2023/10/13 08:02:33;;;;;;;6.40;2.50;;;;;;;17.39;100.00;100597.00;5094842;28;20423;-73
2023/10/13 08:05:00;;;;;;;3.80;2.07;;;;;;;17.44;100.00;100590.50;5094830;28;20517;-73
2023/10/13 08:07:28;;;;;;;6.53;2.90;;;;;;;17.54;100.00;100583.75;5094275;28;21410;-73
2023/10/13 08:09:57;;;;;;;4.20;1.90;;;;;;;17.57;100.00;100583.03;5094104;28;20905;-72
2023/10/13 08:12:24;;;;;;;3.83;2.00;;;;;;;17.67;100.00;100582.56;5094354;28;20510;-73
2023/10/13 08:15:09;;;;;;;4.03;2.40;;;;;;;17.75;100.00;100573.44;5094235;28;20436;-73
2023/10/13 08:17:44;;;;;;;5.90;2.67;;;;;;;17.79;100.00;100578.97;5094136;28;20488;-73
2023/10/13 08:20:12;;;;;;;4.57;2.20;;;;;;;17.88;100.00;100577.69;5094285;28;20420;-72
2023/10/13 08:22:47;;;;;;;5.67;2.20;;;;;;;17.96;100.00;100572.38;5094152;28;20428;-72
2023/10/13 08:25:20;;;;;;;3.87;1.90;;;;;;;18.03;100.00;100573.38;5093846;28;20885;-73
2023/10/13 08:27:49;;;;;;;5.30;2.37;;;;;;;18.10;100.00;100573.56;5094332;28;20457;-73
2023/10/13 08:30:28;;;;;;;6.10;2.60;;;;;;;18.12;100.00;100578.69;5094008;28;20540;-73
2023/10/13 08:32:56;;;;;;;4.27;2.30;;;;;;;18.18;100.00;100569.06;5094309;28;20508;-73
2023/10/13 08:35:33;;;;;;;4.00;1.90;;;;;;;18.19;100.00;100561.63;5093971;28;20484;-73
2023/10/13 08:38:13;;;;;;;7.60;2.67;;;;;;;18.18;100.00;100558.09;5093738;28;20483;-73
2023/10/13 08:40:56;;;;;;;4.47;2.00;;;;;;;18.19;100.00;100550.66;5093953;28;20511;-73
2023/10/13 08:43:36;;;;;;;5.00;1.60;;;;;;;18.17;100.00;100548.28;5093543;28;20432;-73
2023/10/13 08:46:06;;;;;;;3.07;1.50;;;;;;;18.16;100.00;100532.97;5093694;28;20460;-73
2023/10/13 08:48:34;;;;;;;3.43;1.70;;;;;;;18.15;100.00;100534.16;5093679;28;20855;-73
2023/10/13 08:51:10;;;;;;;6.40;2.40;;;;;;;18.13;100.00;100533.69;5093670;28;20447;-73
2023/10/13 08:53:51;;;;;;;3.63;1.80;;;;;;;18.15;100.00;100542.38;5093750;28;20789;-74
2023/10/13 08:56:31;;;;;;;2.80;1.13;;;;;;;18.16;100.00;100538.47;5093940;28;20464;-76
2023/10/13 08:59:05;;;;;;;8.63;1.90;;;;;;;18.17;100.00;100542.78;5093266;28;20475;-72
2023/10/13 09:01:45;;;;;;;4.47;1.63;;;;;;;18.20;100.00;100539.34;5093791;28;20461;-72
2023/10/13 09:04:21;;;;;;;3.53;1.77;;;;;;;18.18;100.00;100527.13;5093326;28;20424;-72
2023/10/13 09:07:03;;;;;;;7.73;2.23;;;;;;;18.15;100.00;100526.72;5093879;28;20539;-72
2023/10/13 09:09:42;;;;;;;3.57;1.70;;;;;;;18.18;100.00;100533.41;5093405;28;20782;-72
2023/10/13 09:12:11;;;;;;;3.40;1.30;;;;;;;18.18;100.00;100530.66;5093528;28;20424;-72
2023/10/13 09:14:42;;;;;;;4.27;1.67;;;;;;;18.18;100.00;100527.94;5093490;28;20559;-73
2023/10/13 09:17:11;;;;;;;4.07;1.80;;;;;;;18.14;100.00;100522.34;5093560;28;20468;-72
2023/10/13 09:19:49;;;;;;;4.97;1.80;;;;;;;18.12;100.00;100516.44;5093327;28;20481;-72
2023/10/13 09:22:27;;;;;;;5.20;2.03;;;;;;;18.14;100.00;100510.59;5093544;28;20519;-72
2023/10/13 09:24:59;;;;;;;3.73;1.73;;;;;;;18.17;100.00;100506.38;5093444;28;20429;-72
2023/10/13 09:27:28;;;;;;;7.23;2.43;;;;;;;18.18;100.00;100497.78;5093412;28;20539;-72
2023/10/13 09:30:06;;;;;;;4.30;1.50;;;;;;;18.19;100.00;100493.09;5093071;28;20549;-72
2023/10/13 09:32:34;;;;;;;4.40;2.20;;;;;;;18.22;100.00;100482.19;5093379;28;20460;-72
2023/10/13 09:35:05;;;;;;;4.33;2.03;;;;;;;18.22;100.00;100492.38;5092966;28;20783;-72
2023/10/13 09:37:33;;;;;;;3.00;1.40;;;;;;;18.19;100.00;100482.91;5093236;28;20539;-72
2023/10/13 09:40:24;;;;;;;4.67;1.87;;;;;;;18.23;100.00;100478.31;5092998;28;20963;-72
2023/10/13 09:42:50;;;;;;;5.43;2.20;;;;;;;18.18;100.00;100466.81;5093567;28;20430;-72
2023/10/13 09:45:17;;;;;;;5.60;2.20;;;;;;;18.13;100.00;100462.41;5093084;28;20444;-73
2023/10/13 09:47:47;;;;;;;3.80;1.90;;;;;;;18.10;100.00;100463.09;5092977;28;20223;-72
2023/10/13 09:50:23;;;;;;;4.80;2.23;;;;;;;18.09;100.00;100456.03;5093296;28;20451;-72
2023/10/13 09:52:52;;;;;;;3.83;1.50;;;;;;;18.14;100.00;100450.28;5093162;28;20420;-72
2023/10/13 09:55:28;;;;;;;4.10;2.43;;;;;;;18.15;100.00;100444.47;5094364;28;20507;-72
2023/10/13 09:58:09;;;;;;;4.03;2.47;;;;;;;18.18;100.00;100433.91;5096444;28;20990;-72
2023/10/13 10:00:49;;;;;;;3.97;1.60;;;;;;;18.20;100.00;100429.69;5097279;28;20421;-72
2023/10/13 10:03:19;;;;;;;4.93;1.67;;;;;;;18.31;100.00;100429.91;5097227;28;20431;-72
2023/10/13 10:06:03;;;;;;;3.07;1.37;;;;;;;18.36;100.00;100429.63;5096793;28;20428;-72
2023/10/13 10:08:33;;;;;;;2.73;1.37;;;;;;;18.40;100.00;100433.25;5096787;28;20453;-72
2023/10/13 10:11:20;;;;;;;3.67;1.57;;;;;;;18.38;100.00;100435.56;5096740;28;21034;-73
2023/10/13 10:13:57;;;;;;;3.70;1.60;;;;;;;18.39;100.00;100439.91;5096688;28;20512;-72
2023/10/13 10:16:37;;;;;;;3.70;2.00;;;;;;;18.32;100.00;100426.81;5096252;28;20535;-73
2023/10/13 10:19:03;;;;;;;3.00;1.60;;;;;;;18.36;100.00;100435.13;5096342;28;20827;-72
2023/10/13 10:21:41;;;;;;;10.20;2.00;;;;;;;18.34;100.00;100429.22;5096427;28;20487;-74
2023/10/13 10:24:24;;;;;;;4.20;1.50;;;;;;;18.33;100.00;100433.13;5096707;28;20424;-74
2023/10/13 10:26:55;;;;;;;4.20;2.37;;;;;;;18.28;100.00;100427.88;5096594;28;20492;-73
2023/10/13 10:29:21;;;;;;;3.17;1.43;;;;;;;18.24;100.00;100427.00;5096302;28;20532;-72
2023/10/13 10:31:48;;;;;;;3.63;2.10;;;;;;;18.22;100.00;100421.09;5096249;28;20852;-72
2023/10/13 10:34:18;;;;;;;3.90;1.80;;;;;;;18.20;100.00;100429.69;5096154;28;20519;-72
2023/10/13 10:36:47;;;;;;;4.33;1.60;;;;;;;18.13;100.00;100411.09;5095724;28;20868;-72
2023/10/13 10:39:15;;;;;;;3.37;1.40;;;;;;;18.15;100.00;100399.81;5096335;28;20484;-72
2023/10/13 10:41:51;;;;;;;4.70;1.93;;;;;;;18.15;100.00;100397.84;5096047;28;20432;-74
2023/10/13 10:44:33;;;;;;;4.03;2.03;;;;;;;18.14;100.00;100409.94;5095945;28;20431;-74
2023/10/13 10:47:10;;;;;;;4.00;1.90;;;;;;;18.15;100.00;100399.81;5096271;28;20460;-72
2023/10/13 10:49:38;;;;;;;3.10;1.60;;;;;;;18.19;100.00;100389.69;5095848;28;20425;-73
2023/10/13 10:52:18;;;;;;;3.83;1.70;;;;;;;18.22;100.00;100393.66;5095751;28;20867;-72
2023/10/13 10:54:51;;;;;;;3.20;1.70;;;;;;;18.25;100.00;100379.25;5095444;28;20867;-72
2023/10/13 10:57:18;;;;;;;2.77;1.20;;;;;;;18.30;100.00;100368.78;5095695;28;20461;-72
2023/10/13 10:59:47;;;;;;;3.63;1.37;;;;;;;18.35;100.00;100371.25;5095697;28;20492;-72
2023/10/13 11:02:18;;;;;;;4.07;1.87;;;;;;;18.39;100.00;100372.13;5095832;28;20456;-72
2023/10/13 11:04:51;;;;;;;3.50;1.50;;;;;;;18.43;100.00;100372.22;5096032;28;20417;-72
2023/10/13 11:07:23;;;;;;;5.67;2.20;;;;;;;18.49;100.00;100380.94;5095026;28;20477;-72
2023/10/13 11:09:52;;;;;;;5.90;2.00;;;;;;;18.53;100.00;100351.63;5095493;28;20424;-72
2023/10/13 11:12:24;;;;;;;11.57;2.37;;;;;;;18.52;100.00;100364.56;5095618;28;20444;-72
2023/10/13 11:15:05;;;;;;;3.40;1.63;;;;;;;18.55;100.00;100368.53;5095820;28;20456;-72
2023/10/13 11:17:41;;;;;;;3.20;1.50;;;;;;;18.60;100.00;100343.56;5095415;28;20562;-72
2023/10/13 11:20:17;;;;;;;5.07;2.20;;;;;;;18.61;100.00;100345.94;5095155;28;20472;-73
2023/10/13 11:22:48;;;;;;;3.80;1.70;;;;;;;18.67;100.00;100355.47;5094886;28;20884;-72
2023/10/13 11:25:23;;;;;;;2.70;1.30;;;;;;;18.78;100.00;100352.19;5095984;28;20423;-72
2023/10/13 11:27:59;;;;;;;3.20;1.33;;;;;;;18.79;100.00;100349.06;5095157;28;20868;-72
2023/10/13 11:30:40;;;;;;;4.30;2.00;;;;;;;18.82;100.00;100351.09;5095159;28;20421;-72
2023/10/13 11:33:09;;;;;;;3.13;1.43;;;;;;;18.86;100.00;100329.22;5095223;28;20429;-72
2023/10/13 11:35:55;;;;;;;3.30;1.50;;;;;;;18.89;100.00;100334.75;5095209;28;20497;-72
2023/10/13 11:38:26;;;;;;;4.60;2.30;;;;;;;18.95;100.00;100326.22;5094935;28;20901;-73
2023/10/13 11:41:08;;;;;;;4.87;1.63;;;;;;;18.98;100.00;100322.75;5095475;28;20421;-72
2023/10/13 11:43:52;;;;;;;3.40;1.83;;;;;;;19.08;100.00;100322.97;5095568;28;20482;-72
2023/10/13 11:49:06;;;;;;;4.30;1.90;;;;;;;19.21;100.00;100315.31;5094300;28;20433;-72
2023/10/13 11:51:33;;;;;;;3.10;1.40;;;;;;;19.28;100.00;100317.41;5094944;28;20937;-72
2023/10/13 11:53:59;;;;;;;5.00;1.20;;;;;;;19.34;100.00;100310.44;5094255;28;20436;-72
2023/10/13 11:56:26;;;;;;;2.90;1.33;;;;;;;19.34;100.00;100299.44;5094691;28;20465;-76
2023/10/13 11:58:53;;;;;;;3.63;1.93;;;;;;;19.37;100.00;100282.25;5094917;28;20898;-77
2023/10/13 12:04:30;;;;;;;3.27;1.20;;;;;;;19.44;100.00;100281.56;5094497;28;20525;-73
2023/10/13 12:09:41;;;;;;;3.77;1.67;;;;;;;19.57;100.00;100274.72;5072728;28;20869;-69
2023/10/13 12:12:08;;;;;;;5.60;2.43;;;;;;;19.65;100.00;100270.91;5073882;28;20468;-69
2023/10/13 12:14:37;;;;;;;3.53;1.80;;;;;;;19.71;100.00;100272.19;5074133;28;20444;-69
2023/10/13 12:17:10;;;;;;;4.20;1.97;;;;;;;19.80;100.00;100261.72;5074062;28;20825;-70
2023/10/13 12:19:38;;;;;;;3.50;1.77;;;;;;;19.84;100.00;100264.53;5073155;28;20465;-70
2023/10/13 12:22:08;;;;;;;4.40;2.10;;;;;;;19.89;100.00;100269.72;5073484;28;20941;-70
2023/10/13 12:24:42;;;;;;;5.27;2.20;;;;;;;19.89;100.00;100264.22;5073983;28;20540;-70
2023/10/13 12:27:19;;;;;;;5.43;2.60;;;;;;;19.94;100.00;100265.84;5073773;28;20454;-71
2023/10/13 12:29:47;;;;;;;4.60;1.80;;;;;;;19.97;100.00;100245.84;5073544;28;20424;-70
2023/10/13 12:32:20;;;;;;;4.53;2.10;;;;;;;20.00;100.00;100253.34;5073687;28;20449;-70
2023/10/13 12:34:57;;;;;;;3.57;1.70;;;;;;;20.04;100.00;100243.19;5073754;28;20425;-70
2023/10/13 12:37:49;;;;;;;3.60;1.80;;;;;;;20.11;100.00;100246.81;5073567;28;20468;-70
2023/10/13 12:51:21;;;;;;;3.90;1.73;;;;;;;20.54;100.00;100222.59;5073415;28;20409;-71
2023/10/13 12:53:48;;;;;;;3.47;1.57;;;;;;;20.61;100.00;100216.34;5073097;28;20805;-70
2023/10/13 12:56:15;;;;;;;3.63;2.17;;;;;;;20.66;100.00;100207.75;5073336;28;20549;-70
2023/10/13 12:58:42;;;;;;;3.70;1.43;;;;;;;20.74;100.00;100198.38;5073708;28;20507;-70
2023/10/13 13:01:08;;;;;;;8.70;2.90;;;;;;;20.77;100.00;100194.91;5073053;28;20485;-70
2023/10/13 13:03:36;;;;;;;4.40;1.97;;;;;;;20.89;100.00;100189.09;5073626;28;20433;-71
2023/10/13 13:06:07;;;;;;;5.97;2.27;;;;;;;21.13;100.00;100192.44;5073380;28;20547;-70
2023/10/13 13:08:35;;;;;;;4.30;2.37;;;;;;;21.38;98.44;100187.09;5073015;28;20457;-70
2023/10/13 13:11:02;;;;;;;4.30;1.90;;;;;;;21.70;97.14;100192.03;5072982;28;20937;-71
2023/10/13 13:13:29;;;;;;;3.63;1.73;;;;;;;22.05;94.80;100185.88;5073752;28;20515;-71
2023/10/13 13:15:56;;;;;;;5.93;2.00;;;;;;;22.33;93.98;100176.91;5073381;28;20467;-71
2023/10/13 13:18:23;;;;;;;6.57;2.03;;;;;;;22.40;90.43;100183.25;5073448;28;20551;-71
2023/10/13 13:20:54;;;;;;;4.60;1.97;;;;;;;22.34;90.90;100173.75;5072926;28;21029;-71
2023/10/13 13:23:21;;;;;;;6.57;2.53;;;;;;;22.23;90.60;100174.94;5073081;28;20972;-72
2023/10/13 13:25:48;;;;;;;3.70;1.80;;;;;;;22.23;91.16;100170.19;5075237;28;20499;-75
2023/10/13 13:28:15;;;;;;;4.43;1.73;;;;;;;22.33;89.84;100160.38;5073182;28;20883;-70
2023/10/13 13:30:42;;;;;;;4.17;2.20;;;;;;;22.31;89.62;100141.44;5076293;28;21028;-71